Time;durP1;ratioP1;P1;durP2;ratioP2;P2;SDS_P1;SDS_P2;PMS_P1;PMS_P2;Temp;Humidity;BMP_temperature;BMP_pressure;BME280_temperature;BME280_humidity;BME280_pressure;Samples;Min_cycle;Max_cycle;Signal;HPM_P1;HPM_P2
2020/12/07 00:01:06;;;;;;;60.85;34.33;;;;;;;4.06;92.85;99908.91;5070405;28;20492;-69
2020/12/07 00:03:31;;;;;;;53.60;32.83;;;;;;;4.10;92.92;99907.69;5068814;28;20162;-68
2020/12/07 00:05:57;;;;;;;53.20;33.83;;;;;;;4.14;92.31;99899.38;5052292;28;20120;-68
2020/12/07 00:08:22;;;;;;;54.67;33.15;;;;;;;4.14;92.37;99888.81;5069342;28;20135;-68
2020/12/07 00:10:48;;;;;;;56.40;33.15;;;;;;;4.18;92.04;99894.66;5074981;28;20124;-68
2020/12/07 00:13:13;;;;;;;58.85;33.35;;;;;;;4.19;91.64;99896.31;5069290;28;20040;-69
2020/12/07 00:15:39;;;;;;;53.22;32.67;;;;;;;4.15;92.28;99886.97;5067122;28;20534;-68
2020/12/07 00:18:05;;;;;;;54.47;32.45;;;;;;;4.17;91.76;99876.31;5065319;28;20135;-69
2020/12/07 00:20:30;;;;;;;50.67;31.70;;;;;;;4.18;91.44;99870.06;5068242;28;20120;-68
2020/12/07 00:22:56;;;;;;;49.25;31.38;;;;;;;4.22;91.91;99867.00;5070312;28;20131;-68
2020/12/07 00:25:22;;;;;;;47.35;31.25;;;;;;;4.22;91.31;99855.59;5051353;28;20502;-68
2020/12/07 00:27:47;;;;;;;48.40;31.15;;;;;;;4.21;91.17;99849.47;5069135;28;20064;-68
2020/12/07 00:30:13;;;;;;;52.33;31.08;;;;;;;4.20;91.87;99849.63;5069710;28;20119;-68
2020/12/07 00:32:38;;;;;;;51.38;29.70;;;;;;;4.11;92.13;99824.88;5067338;28;20704;-68
2020/12/07 00:35:04;;;;;;;46.17;29.83;;;;;;;4.20;92.01;99837.25;5043843;28;20530;-68
2020/12/07 00:37:29;;;;;;;51.85;29.33;;;;;;;4.23;91.80;99828.22;5051090;28;20119;-69
2020/12/07 00:39:55;;;;;;;44.90;28.13;;;;;;;4.16;91.46;99813.91;5069504;28;20107;-68
2020/12/07 00:42:21;;;;;;;49.10;29.70;;;;;;;4.27;91.76;99811.13;5051531;28;20147;-67
2020/12/07 00:44:46;;;;;;;48.88;28.38;;;;;;;4.29;91.97;99809.19;5069638;28;20072;-68
2020/12/07 00:47:12;;;;;;;43.70;28.08;;;;;;;4.10;91.61;99786.22;5069678;28;20135;-67
2020/12/07 00:49:38;;;;;;;44.17;28.13;;;;;;;4.29;92.08;99815.28;5048285;28;20072;-68
2020/12/07 00:52:03;;;;;;;45.83;27.98;;;;;;;4.31;91.74;99811.69;5068143;28;20040;-69
2020/12/07 00:54:29;;;;;;;42.05;27.25;;;;;;;4.29;91.58;99807.38;5069536;28;20551;-69
2020/12/07 00:56:55;;;;;;;43.00;26.52;;;;;;;4.29;91.97;99801.25;5070767;28;20487;-68
2020/12/07 00:59:21;;;;;;;43.28;27.95;;;;;;;4.20;91.30;99778.31;5062965;28;20044;-68
2020/12/07 01:01:47;;;;;;;43.55;26.85;;;;;;;4.35;92.01;99807.78;5066971;28;20033;-69
2020/12/07 01:04:12;;;;;;;43.42;27.17;;;;;;;4.33;92.10;99804.44;5067139;28;20029;-68
2020/12/07 01:06:38;;;;;;;40.20;26.23;;;;;;;4.32;91.66;99808.91;5082935;28;20123;-68
2020/12/07 01:09:03;;;;;;;43.33;26.77;;;;;;;4.31;91.85;99801.09;5064695;28;20115;-69
2020/12/07 01:11:29;;;;;;;48.58;28.92;;;;;;;4.31;91.68;99799.31;5067528;28;20135;-69
2020/12/07 01:13:54;;;;;;;46.42;28.17;;;;;;;4.29;91.86;99807.38;5083667;28;20135;-68
2020/12/07 01:16:21;;;;;;;44.40;28.90;;;;;;;4.29;91.98;99814.47;5061201;28;20116;-71
2020/12/07 01:18:47;;;;;;;48.92;28.85;;;;;;;4.29;91.50;99810.00;5066189;28;20055;-68
2020/12/07 01:21:13;;;;;;;45.65;29.73;;;;;;;4.27;91.85;99819.03;5065165;28;20036;-69
2020/12/07 01:23:40;;;;;;;47.95;28.40;;;;;;;4.25;91.87;99813.06;5065715;28;20084;-69
2020/12/07 01:26:06;;;;;;;48.83;28.95;;;;;;;4.25;91.52;99810.41;5065283;28;20510;-68
2020/12/07 01:28:32;;;;;;;42.53;27.42;;;;;;;4.26;91.42;99812.94;5064219;28;20071;-68
2020/12/07 01:30:57;;;;;;;48.92;28.85;;;;;;;4.27;92.00;99811.13;5067343;28;20124;-68
2020/12/07 01:33:23;;;;;;;43.33;27.08;;;;;;;4.25;91.61;99819.19;5055086;28;20123;-69
2020/12/07 01:35:48;;;;;;;42.13;27.30;;;;;;;4.24;91.20;99811.38;5065378;28;20131;-68
2020/12/07 01:38:14;;;;;;;40.63;27.20;;;;;;;4.26;91.74;99818.22;5061902;28;20665;-68
2020/12/07 01:40:39;;;;;;;47.05;29.55;;;;;;;4.26;91.96;99817.38;5067605;28;20427;-68
2020/12/07 01:43:05;;;;;;;45.45;28.92;;;;;;;4.25;92.34;99823.63;5067310;28;20128;-68
2020/12/07 01:45:30;;;;;;;47.85;30.02;;;;;;;4.25;92.98;99821.84;5047958;28;20127;-68
2020/12/07 01:47:56;;;;;;;49.38;31.40;;;;;;;4.25;93.96;99816.56;5064295;28;20199;-68
2020/12/07 01:50:21;;;;;;;51.05;31.77;;;;;;;3.69;94.10;99722.94;5065769;28;20115;-68
2020/12/07 01:52:47;;;;;;;52.42;31.25;;;;;;;4.09;94.75;99787.19;5048678;28;20116;-68
2020/12/07 01:55:12;;;;;;;58.58;34.00;;;;;;;4.24;94.80;99806.97;5047804;28;20123;-68
2020/12/07 01:57:38;;;;;;;58.85;33.35;;;;;;;4.26;95.31;99826.16;5062948;28;20136;-68
2020/12/07 02:00:07;;;;;;;56.88;34.38;;;;;;;4.29;94.77;99822.38;5054781;28;20095;-68
2020/12/07 02:02:33;;;;;;;58.78;35.20;;;;;;;4.27;95.52;99819.91;5066172;28;20041;-68
2020/12/07 02:04:58;;;;;;;58.30;34.50;;;;;;;4.25;96.40;99815.69;5048233;28;20075;-68
2020/12/07 02:07:24;;;;;;;65.90;36.38;;;;;;;4.23;95.90;99807.09;5064219;28;20110;-67
2020/12/07 02:09:49;;;;;;;68.25;37.58;;;;;;;4.19;96.10;99803.88;5062567;28;20116;-68
2020/12/07 02:12:15;;;;;;;65.82;38.03;;;;;;;4.12;96.86;99800.97;5065668;28;20123;-67
2020/12/07 02:14:40;;;;;;;73.63;39.50;;;;;;;4.12;96.59;99795.69;5064569;28;20107;-69
2020/12/07 02:17:06;;;;;;;73.68;38.55;;;;;;;4.12;96.24;99800.13;5054851;28;20123;-70
2020/12/07 02:19:33;;;;;;;76.05;40.30;;;;;;;4.12;97.12;99794.84;5048064;28;20115;-70
2020/12/07 02:21:58;;;;;;;70.85;38.72;;;;;;;3.89;96.88;99760.75;5065905;28;20039;-69
2020/12/07 02:24:24;;;;;;;76.15;40.70;;;;;;;4.15;97.00;99784.00;5063162;28;20452;-68
2020/12/07 02:26:49;;;;;;;82.90;41.60;;;;;;;4.15;97.79;99776.06;5063793;28;20068;-68
2020/12/07 02:29:15;;;;;;;82.05;42.05;;;;;;;4.15;97.44;99770.78;5066614;28;20124;-68
2020/12/07 02:31:40;;;;;;;83.60;41.35;;;;;;;4.15;98.14;99762.88;5032671;28;20131;-69
2020/12/07 02:34:06;;;;;;;76.38;42.15;;;;;;;4.14;98.15;99761.19;5065942;28;20123;-68
2020/12/07 02:36:31;;;;;;;81.93;41.47;;;;;;;4.16;98.00;99756.63;5065951;28;20128;-69
2020/12/07 02:38:57;;;;;;;79.50;42.15;;;;;;;4.09;98.24;99744.97;5066398;28;20108;-68
2020/12/07 02:41:22;;;;;;;80.45;41.03;;;;;;;4.16;98.49;99750.53;5065290;28;20163;-68
2020/12/07 02:43:48;;;;;;;80.50;40.47;;;;;;;4.14;98.00;99756.78;5066212;28;20123;-68
2020/12/07 02:46:14;;;;;;;76.47;40.58;;;;;;;4.16;98.71;99756.63;5067231;28;20128;-68
2020/12/07 02:48:39;;;;;;;79.22;41.08;;;;;;;4.16;98.20;99750.53;5066331;28;20107;-68
2020/12/07 02:51:05;;;;;;;78.97;41.45;;;;;;;4.13;98.07;99736.63;5066916;28;20128;-68
2020/12/07 02:53:30;;;;;;;79.22;40.78;;;;;;;4.18;98.91;99741.47;5055480;28;20107;-69
2020/12/07 02:55:56;;;;;;;72.82;38.17;;;;;;;4.21;98.30;99743.00;5078408;28;20135;-69
2020/12/07 02:58:21;;;;;;;70.40;37.80;;;;;;;4.08;98.62;99717.72;5066248;28;20120;-68
2020/12/07 03:00:47;;;;;;;81.75;38.92;;;;;;;4.25;98.82;99739.13;5046215;28;20116;-68
2020/12/07 03:03:12;;;;;;;73.13;38.17;;;;;;;4.26;98.43;99727.56;5066159;28;20120;-68
2020/12/07 03:05:38;;;;;;;69.07;35.92;;;;;;;4.28;98.12;99725.63;5066224;28;20167;-68
2020/12/07 03:08:03;;;;;;;73.50;35.47;;;;;;;4.32;98.25;99731.47;5066117;28;20120;-68
2020/12/07 03:10:29;;;;;;;70.07;34.65;;;;;;;4.32;99.07;99715.63;5066063;28;20127;-68
2020/12/07 03:12:54;;;;;;;65.38;34.90;;;;;;;4.24;98.34;99711.88;5062889;28;20170;-68
2020/12/07 03:15:20;;;;;;;67.15;35.78;;;;;;;4.32;98.48;99716.47;5065517;28;20123;-68
2020/12/07 03:17:45;;;;;;;66.28;34.72;;;;;;;4.33;98.40;99719.94;5068550;28;20111;-68
2020/12/07 03:20:11;;;;;;;62.40;33.13;;;;;;;4.34;98.29;99718.97;5065765;28;20115;-68
2020/12/07 03:22:36;;;;;;;58.75;32.95;;;;;;;4.36;99.06;99717.84;5062988;28;20069;-68
2020/12/07 03:25:02;;;;;;;62.28;34.08;;;;;;;4.34;98.67;99698.69;5066150;28;20482;-68
2020/12/07 03:27:28;;;;;;;61.42;33.10;;;;;;;4.35;98.86;99692.38;5047038;28;20534;-68
2020/12/07 03:29:53;;;;;;;62.13;34.20;;;;;;;4.32;98.76;99684.78;5066361;28;20115;-68
2020/12/07 03:32:19;;;;;;;65.95;34.75;;;;;;;4.32;99.02;99687.41;5063546;28;20135;-68
2020/12/07 03:34:44;;;;;;;67.72;34.35;;;;;;;4.31;99.13;99683.09;5067222;28;20123;-68
2020/12/07 03:37:10;;;;;;;62.25;33.42;;;;;;;4.31;99.10;99682.25;5064226;28;20136;-68
2020/12/07 03:39:35;;;;;;;62.95;33.45;;;;;;;4.32;98.29;99682.13;5056161;28;20135;-68
2020/12/07 03:42:01;;;;;;;62.22;32.67;;;;;;;4.31;98.58;99688.38;5064227;28;20116;-68
2020/12/07 03:44:26;;;;;;;61.00;32.28;;;;;;;4.31;98.73;99674.34;5080986;28;20045;-68
2020/12/07 03:46:52;;;;;;;64.15;32.60;;;;;;;4.27;98.74;99674.63;5065109;28;20127;-68
2020/12/07 03:49:18;;;;;;;60.15;33.15;;;;;;;4.25;98.60;99670.44;5047606;28;20127;-70
2020/12/07 03:51:43;;;;;;;64.18;33.38;;;;;;;4.26;98.36;99661.56;5063140;28;20119;-69
2020/12/07 03:54:09;;;;;;;60.75;33.00;;;;;;;4.28;98.56;99659.59;5064835;28;20458;-69
2020/12/07 03:56:34;;;;;;;64.05;33.65;;;;;;;4.29;98.77;99659.47;5056954;28;20036;-69
2020/12/07 03:59:00;;;;;;;59.80;32.75;;;;;;;4.28;98.62;99657.78;5041895;28;20127;-69
2020/12/07 04:01:26;;;;;;;55.85;31.05;;;;;;;4.28;99.13;99667.53;5063682;28;20485;-69
2020/12/07 04:03:59;;;;;;;57.03;30.88;;;;;;;4.29;98.55;99667.38;5064555;28;20116;-69
2020/12/07 04:06:29;;;;;;;49.15;29.00;;;;;;;4.31;98.68;99661.97;5064910;28;20037;-69
2020/12/07 04:08:54;;;;;;;52.47;28.35;;;;;;;4.34;99.13;99661.69;5058902;28;20036;-69
2020/12/07 04:11:20;;;;;;;57.25;28.80;;;;;;;4.35;98.90;99659.88;5064826;28;20116;-70
2020/12/07 04:13:45;;;;;;;50.00;25.85;;;;;;;4.37;99.16;99655.28;5046094;28;20064;-69
2020/12/07 04:16:11;;;;;;;48.22;25.48;;;;;;;4.05;99.30;99604.47;5046564;28;20100;-69
2020/12/07 04:18:36;;;;;;;43.58;23.95;;;;;;;3.81;98.60;99574.06;5060771;28;20120;-70
2020/12/07 04:21:02;;;;;;;41.92;23.77;;;;;;;4.39;98.64;99663.91;5065380;28;20123;-69
2020/12/07 04:23:31;;;;;;;41.95;25.38;;;;;;;4.41;98.97;99668.06;5063734;28;20048;-69
2020/12/07 04:25:56;;;;;;;48.92;25.55;;;;;;;4.43;99.11;99666.13;5060781;28;20043;-69
2020/12/07 04:28:22;;;;;;;41.65;23.85;;;;;;;4.46;99.68;99664.19;5059925;28;20072;-69
2020/12/07 04:30:48;;;;;;;42.38;23.80;;;;;;;4.47;98.78;99660.56;5055474;28;20125;-69
2020/12/07 04:33:13;;;;;;;43.58;23.15;;;;;;;4.47;98.95;99658.72;5067271;28;20114;-69
2020/12/07 04:35:39;;;;;;;39.30;22.70;;;;;;;4.51;98.99;99664.56;5067812;28;20141;-69
2020/12/07 04:38:04;;;;;;;38.25;22.80;;;;;;;4.52;99.38;99656.50;5062576;28;20127;-69
2020/12/07 04:40:30;;;;;;;41.78;22.45;;;;;;;4.54;99.01;99673.06;5066652;28;20238;-69
2020/12/07 04:42:55;;;;;;;34.95;20.75;;;;;;;4.53;99.42;99667.91;5067665;28;20139;-69
2020/12/07 04:45:21;;;;;;;30.85;19.13;;;;;;;4.53;99.02;99662.63;5067921;28;20033;-69
2020/12/07 04:47:49;;;;;;;29.83;18.63;;;;;;;4.53;99.25;99670.53;5064512;28;20071;-69
2020/12/07 04:50:14;;;;;;;26.42;16.30;;;;;;;4.54;99.15;99675.69;5067040;28;20098;-69
2020/12/07 04:52:40;;;;;;;27.27;15.90;;;;;;;4.54;98.55;99682.78;5068598;28;20107;-69
2020/12/07 04:55:06;;;;;;;25.55;14.85;;;;;;;4.55;99.00;99674.69;5068002;28;20119;-69
2020/12/07 04:57:32;;;;;;;22.15;14.27;;;;;;;4.50;99.15;99658.47;5067347;28;20020;-71
2020/12/07 04:59:58;;;;;;;22.80;14.38;;;;;;;4.59;99.37;99668.16;5051037;28;20036;-69
2020/12/07 05:02:27;;;;;;;28.95;14.60;;;;;;;4.18;99.53;99592.78;5069160;28;20055;-69
2020/12/07 05:04:56;;;;;;;24.60;14.85;;;;;;;4.46;99.10;99632.47;5069189;28;20035;-69
2020/12/07 05:07:22;;;;;;;25.38;16.20;;;;;;;4.63;99.71;99652.03;5053130;28;20040;-67
2020/12/07 05:09:47;;;;;;;28.38;16.33;;;;;;;4.64;99.34;99649.22;5068596;28;20135;-68
2020/12/07 05:12:22;;;;;;;31.73;17.58;;;;;;;4.66;99.57;99634.06;5069422;28;20029;-68
2020/12/07 05:14:48;;;;;;;27.98;17.95;;;;;;;4.68;99.97;99631.28;5068456;28;20040;-68
2020/12/07 05:17:15;;;;;;;31.25;18.13;;;;;;;4.69;99.61;99638.22;5067243;28;20123;-68
2020/12/07 05:19:42;;;;;;;31.58;18.23;;;;;;;4.69;99.37;99633.78;5066675;28;20036;-68
2020/12/07 05:22:16;;;;;;;27.48;15.82;;;;;;;4.54;99.92;99606.16;5067684;28;20048;-68
2020/12/07 05:24:42;;;;;;;29.00;16.10;;;;;;;3.91;99.90;99500.16;5062221;28;20131;-68
2020/12/07 05:27:08;;;;;;;25.55;14.77;;;;;;;4.75;99.99;99635.81;5058700;28;20040;-68
2020/12/07 05:29:43;;;;;;;26.38;13.63;;;;;;;4.78;99.33;99633.88;5066856;28;20036;-68
2020/12/07 05:32:09;;;;;;;19.02;10.75;;;;;;;4.76;99.18;99626.09;5063213;28;20049;-68
2020/12/07 05:34:37;;;;;;;14.80;8.85;;;;;;;4.83;99.78;99637.75;5061959;28;20128;-68
2020/12/07 05:37:04;;;;;;;13.77;8.65;;;;;;;4.81;99.60;99630.94;5050851;28;20382;-68
2020/12/07 05:39:32;;;;;;;14.30;8.15;;;;;;;4.82;99.46;99624.69;5061786;28;20037;-68
2020/12/07 05:41:57;;;;;;;;;;;;;;;4.78;98.73;99632.09;5058915;28;20486;-68
2020/12/07 05:44:23;;;;;;;11.55;6.72;;;;;;;4.75;98.92;99629.72;5066544;28;19943;-68
2020/12/07 05:46:51;;;;;;;12.63;7.03;;;;;;;4.77;99.16;99632.22;5082256;28;20140;-68
2020/12/07 05:49:16;;;;;;;13.15;6.43;;;;;;;4.78;98.85;99631.25;5041065;28;20441;-68
2020/12/07 05:51:42;;;;;;;11.02;6.90;;;;;;;4.79;99.02;99619.69;5052845;28;20128;-69
2020/12/07 05:54:08;;;;;;;13.75;6.80;;;;;;;4.80;99.30;99622.22;5049588;28;20039;-69
2020/12/07 05:56:34;;;;;;;8.77;6.05;;;;;;;4.71;99.09;99605.41;5067054;28;20070;-69
2020/12/07 05:59:12;;;;;;;9.00;5.47;;;;;;;4.81;99.25;99615.09;5049399;28;20124;-69
2020/12/07 06:01:38;;;;;;;7.45;5.25;;;;;;;4.67;98.74;99598.72;5050875;28;20036;-69
2020/12/07 06:04:03;;;;;;;7.97;4.78;;;;;;;4.79;98.62;99611.75;5033277;28;20024;-68
2020/12/07 06:06:30;;;;;;;8.20;5.45;;;;;;;4.55;98.58;99563.72;5066757;28;20177;-68
2020/12/07 06:09:06;;;;;;;7.85;5.47;;;;;;;4.83;98.93;99602.56;5056999;28;20050;-68
2020/12/07 06:11:35;;;;;;;11.63;5.47;;;;;;;4.86;99.10;99603.09;5050270;28;20024;-68
2020/12/07 06:14:00;;;;;;;13.95;6.30;;;;;;;4.71;98.86;99572.84;5049566;28;20036;-68
2020/12/07 06:16:26;;;;;;;8.77;6.10;;;;;;;4.58;98.37;99547.59;5049444;28;20031;-68
2020/12/07 06:18:54;;;;;;;10.30;6.57;;;;;;;4.52;98.22;99531.50;5047857;28;20094;-68
2020/12/07 06:21:20;;;;;;;11.93;6.55;;;;;;;4.92;98.44;99591.09;5065743;28;20501;-68
2020/12/07 06:23:46;;;;;;;12.82;7.40;;;;;;;4.94;98.72;99598.91;5033299;28;20045;-68
2020/12/07 06:26:13;;;;;;;15.00;8.85;;;;;;;4.95;98.85;99601.38;5068796;28;20131;-68
2020/12/07 06:28:40;;;;;;;20.75;11.77;;;;;;;4.60;98.70;99556.22;5067081;28;20360;-68
2020/12/07 06:31:16;;;;;;;17.02;10.13;;;;;;;4.93;98.44;99619.22;5064792;28;20033;-69
2020/12/07 06:33:45;;;;;;;15.77;11.15;;;;;;;4.95;99.30;99617.25;5066791;28;20032;-69
2020/12/07 06:36:28;;;;;;;23.05;12.73;;;;;;;4.93;98.97;99613.91;5065535;28;20244;-69
2020/12/07 06:39:00;;;;;;;25.45;14.70;;;;;;;4.92;98.91;99617.53;5080067;28;20032;-69
2020/12/07 06:41:37;;;;;;;26.10;14.70;;;;;;;4.54;99.13;99566.53;5066455;28;20040;-69
2020/12/07 06:44:06;;;;;;;23.83;14.75;;;;;;;4.63;99.18;99585.97;5066758;28;20047;-68
2020/12/07 06:46:48;;;;;;;25.92;15.23;;;;;;;4.88;98.64;99637.34;5038110;28;20037;-69
2020/12/07 06:49:14;;;;;;;21.33;14.50;;;;;;;4.72;99.05;99620.28;5073558;28;20055;-68
2020/12/07 06:51:42;;;;;;;21.13;14.27;;;;;;;4.90;98.57;99649.41;5061156;28;20040;-68
2020/12/07 06:55:02;;;;;;;29.48;20.05;;;;;;;4.78;98.64;99634.72;5066350;28;20039;-68
2020/12/07 06:56:53;;;;;;;21.77;15.55;;;;;;;4.50;99.41;99589.78;5051410;28;20032;-69
2020/12/07 06:59:19;;;;;;;26.30;17.45;;;;;;;4.87;99.37;99649.72;5047588;28;20043;-69
2020/12/07 07:01:51;;;;;;;26.15;16.05;;;;;;;4.88;99.52;99659.31;5066173;28;20570;-69
2020/12/07 07:04:20;;;;;;;22.73;15.23;;;;;;;4.88;98.62;99651.38;5049496;28;20044;-69
2020/12/07 07:06:45;;;;;;;19.70;13.88;;;;;;;4.89;99.14;99658.31;5067286;28;20044;-69
2020/12/07 07:09:11;;;;;;;23.67;15.68;;;;;;;4.89;99.24;99655.69;5048423;28;20123;-69
2020/12/07 07:11:36;;;;;;;28.25;17.17;;;;;;;4.78;98.59;99639.16;5054280;28;20036;-70
2020/12/07 07:14:02;;;;;;;25.85;17.58;;;;;;;4.89;98.57;99652.19;5030945;28;20059;-69
2020/12/07 07:16:27;;;;;;;27.10;17.45;;;;;;;4.11;98.79;99535.25;5065350;28;20140;-70
2020/12/07 07:18:53;;;;;;;25.33;17.83;;;;;;;4.88;98.30;99656.66;5048181;28;20119;-70
2020/12/07 07:21:19;;;;;;;27.35;18.05;;;;;;;4.74;98.58;99628.06;5035074;28;20744;-70
2020/12/07 07:23:44;;;;;;;28.77;18.35;;;;;;;4.86;99.28;99653.31;5048282;28;20071;-70
2020/12/07 07:26:22;;;;;;;31.85;18.67;;;;;;;4.85;99.09;99642.91;5049412;28;20570;-69
2020/12/07 07:28:47;;;;;;;26.50;17.80;;;;;;;4.84;99.02;99647.34;5063968;28;20028;-71
2020/12/07 07:31:13;;;;;;;31.35;18.20;;;;;;;4.84;99.05;99644.69;5070212;28;20036;-70
2020/12/07 07:33:39;;;;;;;29.17;17.30;;;;;;;4.84;98.32;99638.59;5063210;28;20079;-69
2020/12/07 07:36:05;;;;;;;29.33;17.83;;;;;;;4.74;99.02;99630.69;5067123;28;20119;-69
2020/12/07 07:38:31;;;;;;;30.00;18.13;;;;;;;4.83;99.29;99643.03;5048344;28;20569;-70
2020/12/07 07:40:57;;;;;;;27.65;17.95;;;;;;;4.83;98.41;99647.50;5069192;28;20025;-70
2020/12/07 07:43:26;;;;;;;26.55;16.83;;;;;;;4.79;98.82;99636.41;5068384;28;20149;-69
2020/12/07 07:45:57;;;;;;;25.75;17.35;;;;;;;4.84;98.61;99647.34;5049282;28;20048;-69
2020/12/07 07:48:36;;;;;;;28.88;18.08;;;;;;;4.82;98.49;99640.56;5068189;28;20032;-68
2020/12/07 07:59:49;;;;;;;24.48;16.02;;;;;;;4.84;98.40;99652.63;5055345;28;20047;-69
2020/12/07 08:15:58;;;;;;;27.92;17.05;;;;;;;4.89;98.77;99653.03;5075742;28;20032;-68
2020/12/07 08:18:33;;;;;;;26.65;15.88;;;;;;;4.82;99.05;99649.28;5068939;28;20120;-69
2020/12/07 08:21:02;;;;;;;25.58;15.30;;;;;;;4.95;98.68;99661.38;5060444;28;20040;-69
2020/12/07 08:23:29;;;;;;;27.15;15.15;;;;;;;4.93;99.21;99663.34;5064402;28;20052;-69
2020/12/07 08:25:55;;;;;;;22.60;15.48;;;;;;;4.94;99.35;99662.34;5066222;28;20487;-71
2020/12/07 08:28:24;;;;;;;25.90;15.25;;;;;;;4.94;98.46;99660.53;5054984;28;20190;-69
2020/12/07 08:31:03;;;;;;;22.63;13.88;;;;;;;4.93;98.64;99666.78;5048388;28;20522;-69
2020/12/07 08:33:29;;;;;;;22.40;14.40;;;;;;;4.87;98.66;99662.09;5063637;28;20029;-69
2020/12/07 08:35:55;;;;;;;20.88;12.48;;;;;;;5.00;98.85;99674.97;5057820;28;20624;-69
2020/12/07 08:38:28;;;;;;;18.35;11.32;;;;;;;4.98;99.05;99676.94;5052812;28;20102;-69
2020/12/07 08:41:01;;;;;;;15.63;10.40;;;;;;;5.05;98.51;99680.69;5059876;28;20032;-69
2020/12/07 08:43:26;;;;;;;16.63;11.95;;;;;;;5.05;98.87;99680.69;5062533;28;20156;-69
2020/12/07 08:45:52;;;;;;;17.73;10.95;;;;;;;5.05;98.25;99685.97;5060965;28;20127;-69
2020/12/07 08:48:17;;;;;;;18.10;10.93;;;;;;;5.01;98.29;99679.28;5060081;28;20123;-69
2020/12/07 08:50:43;;;;;;;16.92;10.13;;;;;;;5.00;98.60;99686.41;5062259;28;20119;-69
2020/12/07 08:53:09;;;;;;;13.65;10.02;;;;;;;5.01;98.17;99688.06;5063077;28;20051;-69
2020/12/07 08:55:35;;;;;;;14.80;8.95;;;;;;;4.56;98.20;99618.22;5058382;28;20119;-69
2020/12/07 08:58:00;;;;;;;15.00;8.80;;;;;;;4.99;97.77;99692.66;5054632;28;20065;-68
2020/12/07 09:00:26;;;;;;;12.68;8.40;;;;;;;5.01;97.69;99684.56;5058089;28;20068;-70
2020/12/07 09:02:51;;;;;;;16.55;9.55;;;;;;;5.03;97.82;99688.72;5063623;28;20126;-68
2020/12/07 09:05:17;;;;;;;19.52;10.48;;;;;;;5.02;97.94;99694.19;5042113;28;20143;-68
2020/12/07 09:07:42;;;;;;;28.55;11.18;;;;;;;5.05;97.90;99701.81;5059989;28;20035;-67
2020/12/07 09:10:09;;;;;;;20.02;12.20;;;;;;;5.05;98.02;99692.06;5056170;28;20531;-69
2020/12/07 09:12:35;;;;;;;24.10;13.43;;;;;;;5.00;98.23;99689.06;5058180;28;20048;-68
2020/12/07 09:15:01;;;;;;;22.23;13.32;;;;;;;5.06;98.70;99687.63;5058410;28;20198;-69
2020/12/07 09:17:26;;;;;;;22.80;15.45;;;;;;;5.09;98.90;99687.31;5074088;28;20033;-69
2020/12/07 09:19:52;;;;;;;23.20;14.25;;;;;;;5.11;98.59;99689.84;5057261;28;21225;-69
2020/12/07 09:22:17;;;;;;;22.80;14.18;;;;;;;5.17;98.31;99695.38;5058950;28;20594;-69
2020/12/07 09:24:43;;;;;;;21.58;14.85;;;;;;;5.18;98.18;99696.19;5057992;28;20064;-69
2020/12/07 09:27:08;;;;;;;23.92;14.85;;;;;;;5.20;97.94;99703.03;5061508;28;20050;-69
2020/12/07 09:29:34;;;;;;;20.85;13.30;;;;;;;5.19;98.32;99704.00;5055900;28;20410;-70
2020/12/07 09:31:59;;;;;;;17.83;12.95;;;;;;;5.22;98.08;99697.56;5058992;28;20506;-69
2020/12/07 09:34:25;;;;;;;15.90;11.73;;;;;;;5.25;98.30;99707.03;5057872;28;20131;-69
2020/12/07 09:36:50;;;;;;;17.77;11.75;;;;;;;5.25;98.01;99705.22;5058334;28;20548;-70
2020/12/07 09:39:16;;;;;;;17.00;11.88;;;;;;;5.25;97.88;99707.88;5050908;28;20048;-68
2020/12/07 09:41:41;;;;;;;21.13;12.70;;;;;;;5.26;97.23;99712.19;5061312;28;20134;-69
2020/12/07 09:44:07;;;;;;;17.83;11.38;;;;;;;5.30;97.42;99715.34;5057923;28;20422;-68
2020/12/07 09:46:33;;;;;;;21.63;10.27;;;;;;;5.24;96.60;99714.13;5059288;28;20048;-69
2020/12/07 09:48:58;;;;;;;13.70;10.45;;;;;;;5.21;97.20;99720.56;5055306;28;20030;-69
2020/12/07 09:51:25;;;;;;;15.52;9.25;;;;;;;5.20;96.73;99721.53;5073273;28;20123;-69
2020/12/07 09:53:51;;;;;;;12.80;9.23;;;;;;;5.17;96.59;99737.69;5057259;28;20036;-70
2020/12/07 09:56:17;;;;;;;13.88;9.88;;;;;;;5.19;97.08;99724.31;5057284;28;20585;-70
2020/12/07 09:58:42;;;;;;;12.45;9.55;;;;;;;5.22;96.82;99724.84;5052696;28;20115;-68
2020/12/07 10:01:08;;;;;;;16.10;9.15;;;;;;;4.47;96.29;99597.16;5073661;28;20032;-70
2020/12/07 10:03:33;;;;;;;11.77;8.07;;;;;;;5.19;97.18;99713.72;5042734;28;20128;-68
2020/12/07 10:05:59;;;;;;;14.55;9.13;;;;;;;5.18;96.57;99712.06;5063129;28;20546;-69
2020/12/07 10:08:24;;;;;;;13.35;10.40;;;;;;;5.18;96.42;99709.41;5067357;28;20123;-70
2020/12/07 10:10:50;;;;;;;18.33;12.50;;;;;;;5.17;97.17;99710.38;5062929;28;20127;-68
2020/12/07 10:13:16;;;;;;;22.17;14.05;;;;;;;5.18;97.42;99706.78;5064674;28;20068;-69
2020/12/07 10:15:41;;;;;;;22.75;16.60;;;;;;;5.20;96.84;99700.38;5064246;28;20115;-69
2020/12/07 10:18:07;;;;;;;27.95;21.15;;;;;;;5.19;97.00;99701.34;5060082;28;20139;-68
2020/12/07 10:20:32;;;;;;;30.75;23.40;;;;;;;5.18;96.80;99707.63;5079409;28;20124;-68
2020/12/07 10:22:58;;;;;;;35.83;25.10;;;;;;;5.17;96.27;99703.31;5066133;28;20059;-68
2020/12/07 10:25:24;;;;;;;39.58;29.85;;;;;;;5.13;96.29;99707.22;5069890;28;20498;-69
2020/12/07 10:27:50;;;;;;;45.33;32.03;;;;;;;5.10;96.78;99702.22;5070357;28;20364;-69
2020/12/07 10:30:15;;;;;;;51.78;36.03;;;;;;;5.08;96.86;99703.34;5072025;28;20135;-70
2020/12/07 10:32:41;;;;;;;55.97;37.40;;;;;;;5.04;96.73;99705.44;5070855;28;20125;-69
2020/12/07 10:35:07;;;;;;;55.88;40.25;;;;;;;5.06;97.39;99700.84;5066193;28;20063;-70
2020/12/07 10:37:32;;;;;;;53.90;39.92;;;;;;;5.05;97.65;99705.28;5066643;28;20491;-69
2020/12/07 10:39:58;;;;;;;59.65;40.45;;;;;;;5.08;97.66;99700.69;5069336;28;20218;-70
2020/12/07 10:42:23;;;;;;;54.10;38.63;;;;;;;5.10;96.80;99709.31;5068765;28;20066;-70
2020/12/07 10:44:49;;;;;;;58.38;40.95;;;;;;;5.04;96.60;99711.56;5063301;28;20475;-70
2020/12/07 10:47:14;;;;;;;55.15;39.50;;;;;;;5.03;96.39;99714.34;5081806;28;20116;-70
2020/12/07 10:49:40;;;;;;;58.08;39.40;;;;;;;5.04;96.02;99713.38;5062180;28;20119;-70
2020/12/07 10:52:05;;;;;;;61.22;40.47;;;;;;;4.87;96.13;99709.69;5064139;28;20427;-68
2020/12/07 10:54:31;;;;;;;61.03;39.00;;;;;;;4.79;96.83;99715.69;5067135;28;20132;-68
2020/12/07 10:56:57;;;;;;;66.68;43.35;;;;;;;4.80;96.81;99725.28;5064917;28;20124;-69
2020/12/07 10:59:22;;;;;;;67.57;41.90;;;;;;;4.79;96.92;99707.75;5063451;28;20125;-69
2020/12/07 11:01:51;;;;;;;66.18;42.38;;;;;;;4.82;96.99;99709.28;5078265;28;20550;-69
2020/12/07 11:04:17;;;;;;;69.43;43.17;;;;;;;4.75;96.87;99703.72;5061858;28;20064;-70
2020/12/07 11:06:44;;;;;;;66.95;43.72;;;;;;;4.59;97.04;99665.50;5065578;28;20147;-70
2020/12/07 11:09:11;;;;;;;65.95;41.63;;;;;;;4.79;96.88;99701.63;5054958;28;20051;-71
2020/12/07 11:11:36;;;;;;;70.75;44.00;;;;;;;4.78;97.59;99714.03;5063769;28;20117;-70
2020/12/07 11:14:02;;;;;;;68.57;43.53;;;;;;;4.70;96.33;99714.75;5064602;28;20115;-69
2020/12/07 11:16:34;;;;;;;69.70;43.83;;;;;;;4.69;97.42;99731.56;5063753;28;20437;-70
2020/12/07 11:19:02;;;;;;;77.22;46.67;;;;;;;4.59;97.27;99715.72;5060704;28;20510;-70
2020/12/07 11:21:28;;;;;;;69.40;43.72;;;;;;;4.73;96.92;99740.03;5055751;28;20072;-68
2020/12/07 11:23:53;;;;;;;70.88;43.50;;;;;;;4.49;97.57;99690.28;5060933;28;20123;-68
2020/12/07 11:26:19;;;;;;;74.90;46.88;;;;;;;4.73;97.73;99732.09;5054786;28;20044;-68
2020/12/07 11:28:45;;;;;;;70.18;44.20;;;;;;;4.58;97.20;99692.09;5055000;28;20490;-68
2020/12/07 11:31:11;;;;;;;72.05;43.70;;;;;;;4.63;97.14;99699.59;5045022;28;20044;-68
2020/12/07 11:33:37;;;;;;;73.82;45.10;;;;;;;4.77;97.00;99728.22;5035534;28;20041;-69
2020/12/07 11:36:03;;;;;;;71.25;44.67;;;;;;;4.65;97.03;99695.81;5049086;28;20403;-69
2020/12/07 11:38:43;;;;;;;69.65;43.92;;;;;;;4.87;96.27;99733.47;5056064;28;20052;-69
2020/12/07 11:41:23;;;;;;;74.97;44.17;;;;;;;4.87;96.13;99729.00;5051919;28;20082;-70
2020/12/07 11:44:08;;;;;;;71.95;42.63;;;;;;;4.95;95.38;99724.84;5062082;28;20047;-69
2020/12/07 11:46:45;;;;;;;68.65;41.90;;;;;;;4.96;95.02;99722.03;5064412;28;20079;-70